createdAt,value
2022-11-29T00:01:37.378Z,22.95
2022-11-29T00:04:07.215Z,24.92
2022-11-29T00:06:35.974Z,24.15
2022-11-29T00:09:07.566Z,21.95
2022-11-29T00:11:55.313Z,22.23
2022-11-29T00:14:24.043Z,22.77
2022-11-29T00:16:53.871Z,23.55
2022-11-29T00:19:23.480Z,25.02
2022-11-29T00:21:51.456Z,25.95
2022-11-29T00:24:19.790Z,26.88
2022-11-29T00:26:47.838Z,25.33
2022-11-29T00:29:15.891Z,27.02
2022-11-29T00:31:44.857Z,24.67
2022-11-29T00:34:13.695Z,21.35
2022-11-29T00:36:42.991Z,24.15
2022-11-29T00:39:12.744Z,24.75
2022-11-29T00:41:40.976Z,27.23
2022-11-29T00:44:08.981Z,24.42
2022-11-29T00:46:37.321Z,22.75
2022-11-29T00:49:05.796Z,20.77
2022-11-29T00:51:33.769Z,21.98
2022-11-29T00:54:03.156Z,22.65
2022-11-29T00:56:31.182Z,23.42
2022-11-29T00:58:59.126Z,28.58
2022-11-29T01:01:27.271Z,23.70
2022-11-29T01:03:55.216Z,24.38
2022-11-29T01:06:23.130Z,23.38
2022-11-29T01:08:51.032Z,24.35
2022-11-29T01:11:22.728Z,25.35
2022-11-29T01:13:52.348Z,22.77
2022-11-29T01:16:20.462Z,23.20
2022-11-29T01:18:48.563Z,24.48
2022-11-29T01:21:18.713Z,24.05
2022-11-29T01:23:48.434Z,23.40
2022-11-29T01:26:18.497Z,22.15
2022-11-29T01:28:50.235Z,26.17
2022-11-29T01:31:20.558Z,21.52
2022-11-29T01:33:49.873Z,27.70
2022-11-29T01:36:17.783Z,24.67
2022-11-29T01:38:45.929Z,24.35
2022-11-29T01:41:16.428Z,24.90
2022-11-29T01:44:01.869Z,23.02
2022-11-29T01:46:30.777Z,22.60
2022-11-29T01:49:03.151Z,22.95
2022-11-29T01:51:31.957Z,22.65
2022-11-29T01:54:00.383Z,24.23
2022-11-29T01:56:31.154Z,26.13
2022-11-29T01:59:02.287Z,25.77
2022-11-29T02:01:30.308Z,26.80
2022-11-29T02:03:59.040Z,26.10
2022-11-29T02:06:28.191Z,23.73
2022-11-29T02:08:56.399Z,24.13
2022-11-29T02:12:00.410Z,23.90
2022-11-29T02:14:52.189Z,22.90
2022-11-29T02:17:31.264Z,23.13
2022-11-29T02:20:33.117Z,24.05
2022-11-29T02:23:11.889Z,24.00
2022-11-29T02:25:57.109Z,25.50
2022-11-29T02:28:46.198Z,23.35
2022-11-29T02:31:44.246Z,20.92
2022-11-29T02:34:41.395Z,23.98
2022-11-29T02:37:32.693Z,25.42
2022-11-29T02:40:31.537Z,23.73
2022-11-29T02:43:38.357Z,25.33
2022-11-29T02:46:23.041Z,25.83
2022-11-29T02:48:59.173Z,26.15
2022-11-29T02:51:37.353Z,22.77
2022-11-29T02:54:11.040Z,26.92
2022-11-29T02:56:44.056Z,24.52
2022-11-29T02:59:21.593Z,23.95
2022-11-29T03:01:56.874Z,28.63
2022-11-29T03:07:06.902Z,24.02
2022-11-29T03:09:41.019Z,21.98
2022-11-29T03:12:19.789Z,26.27
2022-11-29T03:14:57.897Z,26.77
2022-11-29T03:17:35.229Z,20.45
2022-11-29T03:20:21.654Z,22.83
2022-11-29T03:23:05.232Z,28.00
2022-11-29T03:25:37.700Z,23.75
2022-11-29T03:28:14.233Z,24.30
2022-11-29T03:30:47.424Z,25.77
2022-11-29T03:33:22.609Z,28.88
2022-11-29T03:35:57.873Z,24.85
2022-11-29T03:41:05.654Z,23.65
2022-11-29T03:43:42.006Z,26.65
2022-11-29T03:46:13.673Z,27.65
2022-11-29T03:48:47.972Z,30.05
2022-11-29T03:51:21.058Z,27.17
2022-11-29T03:53:56.415Z,28.13
2022-11-29T03:59:05.049Z,29.35
2022-11-29T04:02:15.652Z,26.35
2022-11-29T04:05:22.416Z,25.08
2022-11-29T04:08:18.171Z,25.75
2022-11-29T04:11:07.066Z,32.85
2022-11-29T04:14:06.739Z,27.92
2022-11-29T04:17:05.881Z,26.52
2022-11-29T04:20:06.405Z,28.35
2022-11-29T04:22:51.276Z,26.00
2022-11-29T04:25:54.870Z,25.87
2022-11-29T04:29:02.989Z,24.40
2022-11-29T04:31:40.263Z,23.35
2022-11-29T04:34:29.518Z,23.45
2022-11-29T04:37:38.327Z,25.77
2022-11-29T04:40:42.320Z,28.45
2022-11-29T04:43:51.814Z,24.60
2022-11-29T04:46:45.447Z,28.17
2022-11-29T04:49:32.997Z,21.80
2022-11-29T04:52:16.793Z,27.02
2022-11-29T04:54:51.272Z,23.65
2022-11-29T04:57:28.357Z,26.27
2022-11-29T05:00:07.660Z,25.80
2022-11-29T05:02:42.101Z,25.42
2022-11-29T05:05:21.103Z,26.87
2022-11-29T05:07:59.336Z,24.63
2022-11-29T05:10:33.112Z,26.80
2022-11-29T05:13:10.570Z,32.08
2022-11-29T05:16:07.958Z,25.65
2022-11-29T05:18:58.659Z,25.58
2022-11-29T05:21:37.385Z,24.80
2022-11-29T05:24:18.111Z,24.48
2022-11-29T05:26:51.904Z,25.27
2022-11-29T05:29:27.154Z,24.83
2022-11-29T05:35:06.552Z,25.52
2022-11-29T05:37:45.201Z,28.83
2022-11-29T05:40:38.785Z,23.77
2022-11-29T05:43:18.465Z,30.95
2022-11-29T05:45:53.505Z,29.70
2022-11-29T05:48:30.928Z,26.60
2022-11-29T05:51:12.126Z,28.02
2022-11-29T05:53:46.075Z,28.92
2022-11-29T05:56:19.878Z,25.98
2022-11-29T05:58:52.673Z,26.52
2022-11-29T06:01:24.997Z,29.73
2022-11-29T06:04:01.103Z,31.67
2022-11-29T06:06:39.595Z,33.05
2022-11-29T06:09:16.569Z,28.85
2022-11-29T06:11:49.272Z,29.73
2022-11-29T06:14:40.177Z,37.30
2022-11-29T06:17:35.749Z,34.03
2022-11-29T06:20:36.736Z,28.83
2022-11-29T06:23:24.082Z,34.00
2022-11-29T06:26:04.022Z,28.15
2022-11-29T06:28:51.149Z,28.73
2022-11-29T06:31:24.746Z,28.60
2022-11-29T06:34:02.500Z,34.17
2022-11-29T06:36:37.064Z,30.63
2022-11-29T06:39:05.910Z,27.85
2022-11-29T06:41:34.522Z,29.00
2022-11-29T06:44:03.201Z,30.88
2022-11-29T06:46:45.414Z,31.35
2022-11-29T06:49:21.115Z,30.42
2022-11-29T06:51:59.584Z,35.13
2022-11-29T06:54:39.701Z,31.88
2022-11-29T06:57:17.271Z,32.05
2022-11-29T06:59:58.546Z,33.90
2022-11-29T07:02:45.260Z,33.88
2022-11-29T07:05:21.084Z,29.60
2022-11-29T07:07:51.380Z,34.38
2022-11-29T07:10:20.809Z,35.03
2022-11-29T07:12:50.462Z,32.50
2022-11-29T07:15:21.082Z,32.38
2022-11-29T07:18:02.680Z,29.10
2022-11-29T07:20:38.039Z,31.23
2022-11-29T07:23:17.796Z,28.00
2022-11-29T07:25:59.282Z,27.88
2022-11-29T07:28:43.682Z,29.48
2022-11-29T07:31:21.467Z,32.58
2022-11-29T07:33:59.893Z,32.70
2022-11-29T07:36:37.595Z,28.92
2022-11-29T07:39:19.190Z,29.17
2022-11-29T07:41:54.346Z,30.50
2022-11-29T07:44:29.051Z,31.08
2022-11-29T07:46:57.085Z,29.20
2022-11-29T07:49:25.076Z,32.53
2022-11-29T07:51:54.800Z,26.02
2022-11-29T07:54:24.433Z,30.45
2022-11-29T07:56:52.336Z,30.20
2022-11-29T07:59:20.601Z,39.97
2022-11-29T08:01:48.548Z,30.95
2022-11-29T08:04:16.640Z,32.03
2022-11-29T08:06:44.652Z,33.30
2022-11-29T08:09:12.560Z,31.52
2022-11-29T08:11:41.941Z,35.80
2022-11-29T08:14:10.091Z,33.67
2022-11-29T08:16:38.475Z,36.28
2022-11-29T08:19:06.927Z,37.00
2022-11-29T08:21:34.925Z,31.75
2022-11-29T08:24:02.956Z,34.13
2022-11-29T08:26:31.818Z,31.73
2022-11-29T08:29:01.542Z,29.83
2022-11-29T08:31:29.877Z,35.47
2022-11-29T08:33:58.044Z,32.83
2022-11-29T08:36:26.126Z,29.88
2022-11-29T08:39:02.241Z,28.42
2022-11-29T08:41:34.135Z,31.55
2022-11-29T08:44:03.598Z,32.25
2022-11-29T08:46:45.431Z,33.90
2022-11-29T08:49:13.408Z,38.05
2022-11-29T08:51:41.393Z,33.33
2022-11-29T08:54:10.765Z,33.10
2022-11-29T08:59:28.291Z,31.40
2022-11-29T09:01:56.309Z,32.15
2022-11-29T09:04:24.436Z,29.75
2022-11-29T09:06:52.477Z,31.90
2022-11-29T09:09:20.448Z,28.00
2022-11-29T09:11:49.739Z,35.55
2022-11-29T09:14:18.309Z,33.47
2022-11-29T09:16:47.729Z,41.45
2022-11-29T09:19:16.219Z,37.63
2022-11-29T09:21:44.212Z,40.35
2022-11-29T09:24:12.282Z,36.60
2022-11-29T09:26:42.225Z,35.47
2022-11-29T09:29:11.415Z,34.22
2022-11-29T09:31:39.515Z,31.48
2022-11-29T09:34:08.944Z,34.17
2022-11-29T09:36:37.245Z,30.35
2022-11-29T09:39:05.277Z,32.33
2022-11-29T09:41:48.771Z,35.30
2022-11-29T09:44:22.262Z,40.65
2022-11-29T09:46:58.917Z,33.97
2022-11-29T09:49:55.764Z,38.17
2022-11-29T09:52:35.078Z,32.67
2022-11-29T09:55:12.481Z,37.22
2022-11-29T09:57:43.913Z,34.70
2022-11-29T10:00:19.827Z,33.50
2022-11-29T10:02:53.549Z,31.30
2022-11-29T10:05:26.498Z,34.55
2022-11-29T10:08:00.888Z,31.98
2022-11-29T10:10:32.230Z,35.43
2022-11-29T10:13:08.172Z,31.98
2022-11-29T10:15:42.304Z,35.80
2022-11-29T10:18:17.169Z,32.45
2022-11-29T10:20:50.559Z,31.05
2022-11-29T10:23:24.634Z,32.60
2022-11-29T10:25:54.332Z,31.58
2022-11-29T10:28:23.314Z,30.40
2022-11-29T10:30:54.191Z,37.97
2022-11-29T10:33:26.301Z,31.33
2022-11-29T10:35:58.397Z,32.17
2022-11-29T10:38:31.211Z,35.20
2022-11-29T10:41:05.680Z,33.80
2022-11-29T10:43:33.996Z,36.60
2022-11-29T10:46:02.589Z,34.83
2022-11-29T10:48:34.006Z,29.75
2022-11-29T10:51:03.693Z,31.63
2022-11-29T10:53:36.657Z,35.15
2022-11-29T10:56:09.344Z,32.45
2022-11-29T10:58:37.531Z,43.35
2022-11-29T11:01:07.653Z,36.83
2022-11-29T11:03:38.764Z,31.60
2022-11-29T11:06:14.638Z,36.88
2022-11-29T11:08:44.629Z,36.67
2022-11-29T11:11:14.137Z,45.03
2022-11-29T11:13:42.726Z,37.45
2022-11-29T11:16:18.762Z,38.97
2022-11-29T11:18:48.560Z,33.65
2022-11-29T11:21:22.699Z,35.67
2022-11-29T11:23:57.049Z,27.75
2022-11-29T11:26:25.932Z,30.03
2022-11-29T11:28:59.009Z,30.25
2022-11-29T11:31:34.124Z,30.38
2022-11-29T11:34:27.729Z,29.90
2022-11-29T11:37:20.434Z,28.35
2022-11-29T11:39:51.003Z,28.58
2022-11-29T11:42:42.632Z,40.08
2022-11-29T11:45:35.012Z,31.95
2022-11-29T11:48:05.852Z,32.55
2022-11-29T11:50:37.822Z,33.05
2022-11-29T11:53:18.582Z,29.67
2022-11-29T11:55:54.740Z,35.03
2022-11-29T11:58:24.537Z,34.35
2022-11-29T12:01:04.309Z,30.30
2022-11-29T12:03:43.002Z,31.60
2022-11-29T12:06:28.300Z,27.60
2022-11-29T12:09:04.645Z,27.60
2022-11-29T12:11:40.185Z,29.92
2022-11-29T12:14:08.962Z,32.03
2022-11-29T12:16:40.215Z,32.65
2022-11-29T12:19:16.469Z,25.13
2022-11-29T12:21:48.418Z,29.38
2022-11-29T12:24:25.812Z,30.05
2022-11-29T12:26:58.546Z,27.50
2022-11-29T12:29:32.036Z,30.45
2022-11-29T12:32:21.419Z,30.08
2022-11-29T12:35:02.971Z,31.35
2022-11-29T12:37:36.885Z,28.77
2022-11-29T12:40:26.243Z,26.13
2022-11-29T12:43:04.015Z,31.67
2022-11-29T12:45:42.828Z,33.95
2022-11-29T12:48:23.131Z,28.70
2022-11-29T12:50:59.472Z,28.52
2022-11-29T12:53:41.890Z,28.95
2022-11-29T12:56:16.681Z,33.42
2022-11-29T12:58:57.552Z,30.02
2022-11-29T13:01:32.624Z,29.50
2022-11-29T13:04:12.406Z,36.38
2022-11-29T13:06:48.286Z,29.67
2022-11-29T13:09:32.945Z,33.03
2022-11-29T13:12:07.537Z,28.60
2022-11-29T13:14:43.635Z,29.73
2022-11-29T13:17:26.907Z,31.60
2022-11-29T13:19:57.354Z,28.30
2022-11-29T13:22:39.184Z,31.10
2022-11-29T13:25:16.629Z,25.83
2022-11-29T13:27:54.806Z,35.42
2022-11-29T13:30:23.005Z,27.80
2022-11-29T13:32:58.868Z,32.05
2022-11-29T13:35:36.470Z,28.40
2022-11-29T13:38:11.457Z,36.35
2022-11-29T13:40:47.392Z,34.33
2022-11-29T13:43:22.853Z,30.98
2022-11-29T13:45:58.561Z,35.78
2022-11-29T13:48:47.872Z,29.08
2022-11-29T13:51:31.556Z,29.17
2022-11-29T13:54:02.368Z,32.63
2022-11-29T13:56:43.007Z,35.42
2022-11-29T13:59:19.527Z,35.50
2022-11-29T14:01:50.305Z,30.45
2022-11-29T14:04:29.219Z,32.30
2022-11-29T14:07:08.086Z,33.75
2022-11-29T14:09:44.454Z,38.53
2022-11-29T14:12:36.738Z,36.55
2022-11-29T14:15:19.081Z,31.63
2022-11-29T14:17:53.902Z,38.35
2022-11-29T14:20:55.819Z,35.40
2022-11-29T14:23:35.868Z,31.90
2022-11-29T14:26:28.734Z,35.42
2022-11-29T14:28:57.873Z,41.22
2022-11-29T14:31:55.897Z,37.53
2022-11-29T14:34:50.485Z,36.58
2022-11-29T14:37:48.342Z,35.58
2022-11-29T14:40:30.022Z,40.63
2022-11-29T14:42:59.016Z,40.75
2022-11-29T14:45:30.009Z,35.88
2022-11-29T14:47:59.704Z,34.00
2022-11-29T14:50:36.613Z,40.42
2022-11-29T14:53:06.475Z,45.45
2022-11-29T14:55:37.340Z,36.22
2022-11-29T14:58:16.761Z,36.72
2022-11-29T15:01:11.042Z,27.83
2022-11-29T15:03:50.509Z,34.95
2022-11-29T15:06:26.204Z,37.15
2022-11-29T15:09:01.702Z,47.03
2022-11-29T15:11:49.463Z,62.10
2022-11-29T15:14:23.435Z,64.15
2022-11-29T15:17:05.466Z,60.30
2022-11-29T15:19:59.943Z,50.63
2022-11-29T15:22:30.564Z,41.15
2022-11-29T15:25:02.162Z,40.83
2022-11-29T15:27:30.159Z,37.35
2022-11-29T15:29:59.900Z,36.15
2022-11-29T15:32:33.569Z,34.20
2022-11-29T15:35:03.020Z,34.38
2022-11-29T15:37:44.512Z,35.67
2022-11-29T15:40:15.673Z,39.30
2022-11-29T15:42:45.926Z,62.92
2022-11-29T15:45:29.263Z,41.17
2022-11-29T15:48:12.510Z,37.75
2022-11-29T15:50:46.707Z,38.45
2022-11-29T15:53:19.798Z,37.67
2022-11-29T15:55:50.439Z,38.63
2022-11-29T15:58:19.645Z,36.78
2022-11-29T16:00:50.653Z,42.38
2022-11-29T16:03:25.281Z,41.72
2022-11-29T16:06:01.898Z,41.08
2022-11-29T16:08:34.175Z,36.28
2022-11-29T16:11:02.477Z,36.33
2022-11-29T16:13:39.529Z,33.05
2022-11-29T16:16:15.425Z,43.17
2022-11-29T16:18:45.286Z,38.30
2022-11-29T16:21:27.169Z,32.90
2022-11-29T16:23:55.835Z,42.42
2022-11-29T16:26:28.285Z,44.72
2022-11-29T16:28:57.937Z,43.28
2022-11-29T16:31:32.923Z,38.03
2022-11-29T16:34:08.217Z,38.13
2022-11-29T16:39:08.362Z,30.73
2022-11-29T16:41:38.326Z,35.13
2022-11-29T16:44:08.247Z,33.65
2022-11-29T16:46:38.746Z,34.05
2022-11-29T16:49:31.717Z,30.45
2022-11-29T16:52:01.720Z,41.75
2022-11-29T16:54:33.848Z,37.63
2022-11-29T16:57:06.096Z,38.38
2022-11-29T16:59:35.293Z,37.05
2022-11-29T17:02:03.843Z,35.97
2022-11-29T17:04:31.862Z,33.10
2022-11-29T17:07:01.391Z,32.58
2022-11-29T17:09:33.039Z,28.48
2022-11-29T17:12:02.487Z,39.88
2022-11-29T17:14:31.569Z,32.38
2022-11-29T17:17:02.582Z,32.60
2022-11-29T17:19:31.589Z,34.45
2022-11-29T17:22:01.248Z,35.80
2022-11-29T17:24:29.236Z,35.60
2022-11-29T17:26:57.195Z,37.97
2022-11-29T17:29:26.485Z,38.95
2022-11-29T17:31:54.522Z,36.88
2022-11-29T17:34:22.606Z,40.08
2022-11-29T17:36:50.879Z,38.00
2022-11-29T17:39:21.607Z,45.00
2022-11-29T17:41:49.719Z,42.33
2022-11-29T17:44:17.695Z,37.72
2022-11-29T17:46:45.636Z,39.75
2022-11-29T17:49:13.541Z,32.33
2022-11-29T17:51:56.988Z,38.65
2022-11-29T17:54:26.512Z,38.35
2022-11-29T17:56:54.496Z,39.55
2022-11-29T17:59:22.562Z,43.97
2022-11-29T18:01:50.765Z,40.50
2022-11-29T18:04:19.523Z,35.00
2022-11-29T18:06:50.049Z,42.50
2022-11-29T18:09:19.709Z,37.22
2022-11-29T18:11:50.436Z,36.08
2022-11-29T18:14:20.766Z,37.03
2022-11-29T18:16:48.935Z,35.60
2022-11-29T18:19:18.919Z,36.08
2022-11-29T18:21:47.212Z,37.50
2022-11-29T18:24:15.664Z,32.58
2022-11-29T18:26:43.663Z,30.55
2022-11-29T18:29:13.204Z,34.10
2022-11-29T18:31:43.615Z,40.40
2022-11-29T18:34:13.063Z,35.58
2022-11-29T18:36:43.759Z,33.88
2022-11-29T18:39:14.858Z,35.60
2022-11-29T18:41:44.518Z,45.70
2022-11-29T18:44:15.758Z,37.05
2022-11-29T18:46:44.783Z,37.72
2022-11-29T18:49:14.389Z,39.70
2022-11-29T18:51:45.166Z,38.28
2022-11-29T18:54:14.134Z,35.50
2022-11-29T18:56:42.323Z,49.97
2022-11-29T18:59:14.754Z,53.90
2022-11-29T19:01:43.369Z,49.40
2022-11-29T19:04:13.758Z,50.60
2022-11-29T19:06:42.192Z,45.10
2022-11-29T19:09:13.944Z,42.45
2022-11-29T19:11:41.950Z,41.67
2022-11-29T19:14:12.446Z,47.70
2022-11-29T19:16:43.981Z,47.72
2022-11-29T19:19:12.638Z,40.70
2022-11-29T19:21:41.101Z,50.25
2022-11-29T19:24:14.875Z,47.03
2022-11-29T19:26:44.665Z,49.95
2022-11-29T19:29:13.935Z,48.33
2022-11-29T19:31:43.609Z,47.92
2022-11-29T19:34:11.802Z,42.95
2022-11-29T19:36:43.081Z,50.03
2022-11-29T19:39:25.697Z,56.28
2022-11-29T19:41:54.299Z,47.80
2022-11-29T19:44:29.134Z,55.78
2022-11-29T19:47:00.079Z,55.17
2022-11-29T19:49:29.071Z,55.10
2022-11-29T19:51:57.610Z,44.97
2022-11-29T19:54:29.209Z,49.88
2022-11-29T19:56:58.756Z,41.72
2022-11-29T19:59:29.776Z,40.70
2022-11-29T20:01:59.480Z,38.40
2022-11-29T20:04:27.929Z,40.22
2022-11-29T20:06:57.073Z,48.38
2022-11-29T20:09:28.884Z,41.22
2022-11-29T20:11:58.105Z,43.63
2022-11-29T20:14:31.245Z,44.45
2022-11-29T20:17:03.023Z,42.20
2022-11-29T20:19:31.644Z,49.80
2022-11-29T20:22:00.350Z,49.42
2022-11-29T20:24:31.261Z,41.40
2022-11-29T20:27:05.193Z,44.17
2022-11-29T20:29:33.600Z,43.42
2022-11-29T20:32:03.533Z,46.05
2022-11-29T20:34:32.593Z,44.30
2022-11-29T20:37:32.925Z,45.67
2022-11-29T20:40:03.726Z,44.33
2022-11-29T20:42:59.589Z,42.75
2022-11-29T20:45:28.792Z,45.75
2022-11-29T20:48:03.858Z,43.63
2022-11-29T20:50:33.418Z,37.65
2022-11-29T20:53:27.811Z,35.30
2022-11-29T20:55:56.073Z,29.20
2022-11-29T20:58:26.397Z,31.35
2022-11-29T21:00:56.772Z,38.50
2022-11-29T21:03:27.955Z,41.83
2022-11-29T21:05:57.775Z,39.78
2022-11-29T21:08:27.473Z,38.00
2022-11-29T21:10:55.587Z,44.63
2022-11-29T21:13:24.309Z,40.55
2022-11-29T21:15:53.199Z,39.67
2022-11-29T21:18:24.542Z,34.83
2022-11-29T21:21:06.851Z,33.08
2022-11-29T21:23:46.173Z,35.28
2022-11-29T21:26:17.735Z,35.85
2022-11-29T21:28:56.182Z,33.85
2022-11-29T21:31:24.710Z,29.48
2022-11-29T21:33:53.324Z,35.53
2022-11-29T21:36:22.915Z,29.85
2022-11-29T21:38:55.052Z,36.55
2022-11-29T21:41:23.394Z,42.30
2022-11-29T21:44:06.111Z,46.60
2022-11-29T21:46:35.357Z,45.72
2022-11-29T21:49:03.432Z,49.85
2022-11-29T21:51:33.014Z,49.28
2022-11-29T21:54:01.956Z,51.13
2022-11-29T21:56:29.897Z,39.65
2022-11-29T21:58:57.842Z,33.97
2022-11-29T22:01:27.196Z,39.72
2022-11-29T22:03:55.455Z,43.60
2022-11-29T22:06:26.018Z,42.08
2022-11-29T22:08:55.271Z,38.58
2022-11-29T22:11:31.788Z,39.75
2022-11-29T22:14:16.894Z,40.63
2022-11-29T22:16:47.877Z,36.65
2022-11-29T22:19:18.204Z,36.42
2022-11-29T22:21:47.881Z,36.30
2022-11-29T22:24:18.738Z,39.08
2022-11-29T22:26:47.132Z,38.53
2022-11-29T22:29:15.881Z,37.20
2022-11-29T22:31:44.933Z,40.53
2022-11-29T22:34:13.053Z,39.00
2022-11-29T22:36:41.495Z,35.30
2022-11-29T22:39:10.218Z,34.28
2022-11-29T22:41:40.255Z,35.67
2022-11-29T22:44:08.634Z,39.70
2022-11-29T22:46:41.204Z,34.92
2022-11-29T22:49:09.466Z,31.38
2022-11-29T22:51:38.661Z,37.50
2022-11-29T22:54:08.566Z,39.25
2022-11-29T22:56:39.547Z,42.97
2022-11-29T22:59:07.683Z,37.05
2022-11-29T23:01:36.978Z,38.25
2022-11-29T23:04:07.251Z,35.83
2022-11-29T23:06:37.334Z,35.60
2022-11-29T23:09:07.595Z,36.58
2022-11-29T23:11:35.484Z,39.03
2022-11-29T23:14:04.864Z,35.17
2022-11-29T23:16:33.493Z,38.30
2022-11-29T23:19:02.267Z,35.47
2022-11-29T23:21:31.994Z,34.78
2022-11-29T23:24:01.463Z,38.38
2022-11-29T23:26:31.773Z,33.67
2022-11-29T23:28:59.979Z,33.80
2022-11-29T23:31:29.349Z,34.58
2022-11-29T23:33:57.412Z,30.70
2022-11-29T23:36:25.446Z,27.67
2022-11-29T23:38:53.586Z,33.63
2022-11-29T23:41:21.578Z,32.17
2022-11-29T23:43:49.570Z,33.30
2022-11-29T23:46:19.523Z,38.50
2022-11-29T23:48:49.274Z,32.80
2022-11-29T23:51:17.863Z,30.65
2022-11-29T23:53:46.686Z,32.00
2022-11-29T23:56:17.427Z,31.02
2022-11-29T23:58:45.943Z,31.20
